sensor_id;sensor_type;location;lat;lon;timestamp;pressure;altitude;pressure_sealevel;temperature;humidity
39793;BME280;26080;42.264;24.536;2023-05-19T00:01:50;99296.56;;;11.88;100.00
39793;BME280;26080;42.264;24.536;2023-05-19T00:04:17;99299.13;;;11.89;100.00
39793;BME280;26080;42.264;24.536;2023-05-19T00:06:42;99294.78;;;11.88;100.00
39793;BME280;26080;42.264;24.536;2023-05-19T00:09:10;99288.78;;;11.86;100.00
39793;BME280;26080;42.264;24.536;2023-05-19T00:11:38;99282.69;;;11.85;100.00
39793;BME280;26080;42.264;24.536;2023-05-19T00:14:06;99287.94;;;11.85;100.00
39793;BME280;26080;42.264;24.536;2023-05-19T00:16:32;99283.63;;;11.84;100.00
39793;BME280;26080;42.264;24.536;2023-05-19T00:19:00;99294.13;;;11.84;100.00
39793;BME280;26080;42.264;24.536;2023-05-19T00:21:26;99259.56;;;11.59;100.00
39793;BME280;26080;42.264;24.536;2023-05-19T00:23:51;99293.53;;;11.78;100.00
39793;BME280;26080;42.264;24.536;2023-05-19T00:26:17;99289.38;;;11.74;100.00
39793;BME280;26080;42.264;24.536;2023-05-19T00:28:43;99272.50;;;11.62;100.00
39793;BME280;26080;42.264;24.536;2023-05-19T00:31:08;99286.00;;;11.72;100.00
39793;BME280;26080;42.264;24.536;2023-05-19T00:33:34;99290.31;;;11.73;100.00
39793;BME280;26080;42.264;24.536;2023-05-19T00:36:02;99283.28;;;11.73;100.00
39793;BME280;26080;42.264;24.536;2023-05-19T00:38:33;99281.53;;;11.74;100.00
39793;BME280;26080;42.264;24.536;2023-05-19T00:41:00;99278.72;;;11.77;100.00
39793;BME280;26080;42.264;24.536;2023-05-19T00:43:25;99284.72;;;11.80;100.00
39793;BME280;26080;42.264;24.536;2023-05-19T00:45:51;99288.94;;;11.83;100.00
39793;BME280;26080;42.264;24.536;2023-05-19T00:48:17;99279.56;;;11.79;100.00
39793;BME280;26080;42.264;24.536;2023-05-19T00:50:43;99263.31;;;11.71;100.00
39793;BME280;26080;42.264;24.536;2023-05-19T00:53:09;99285.41;;;11.84;100.00
39793;BME280;26080;42.264;24.536;2023-05-19T00:55:36;99276.50;;;11.86;100.00
39793;BME280;26080;42.264;24.536;2023-05-19T00:58:03;99253.41;;;11.76;100.00
39793;BME280;26080;42.264;24.536;2023-05-19T01:00:30;99250.72;;;11.77;100.00
39793;BME280;26080;42.264;24.536;2023-05-19T01:02:55;99267.44;;;11.92;100.00
39793;BME280;26080;42.264;24.536;2023-05-19T01:05:21;99269.31;;;11.90;100.00
39793;BME280;26080;42.264;24.536;2023-05-19T01:07:46;99235.06;;;11.76;100.00
39793;BME280;26080;42.264;24.536;2023-05-19T01:10:16;99258.81;;;11.90;100.00
39793;BME280;26080;42.264;24.536;2023-05-19T01:12:42;99264.69;;;11.95;100.00
39793;BME280;26080;42.264;24.536;2023-05-19T01:15:08;99265.63;;;11.94;100.00
39793;BME280;26080;42.264;24.536;2023-05-19T01:17:53;99260.38;;;11.94;100.00
39793;BME280;26080;42.264;24.536;2023-05-19T01:20:27;99243.59;;;11.81;100.00
39793;BME280;26080;42.264;24.536;2023-05-19T01:31:36;99281.84;;;11.85;100.00
39793;BME280;26080;42.264;24.536;2023-05-19T01:34:02;99254.53;;;11.72;100.00
39793;BME280;26080;42.264;24.536;2023-05-19T01:36:32;99279.13;;;11.86;100.00
39793;BME280;26080;42.264;24.536;2023-05-19T01:39:01;99277.59;;;11.82;100.00
39793;BME280;26080;42.264;24.536;2023-05-19T01:41:27;99275.06;;;11.81;100.00
39793;BME280;26080;42.264;24.536;2023-05-19T01:43:55;99272.53;;;11.79;100.00
39793;BME280;26080;42.264;24.536;2023-05-19T01:46:22;99249.75;;;11.63;100.00
39793;BME280;26080;42.264;24.536;2023-05-19T01:48:48;99269.50;;;11.70;100.00
39793;BME280;26080;42.264;24.536;2023-05-19T01:51:14;99273.13;;;11.67;100.00
39793;BME280;26080;42.264;24.536;2023-05-19T01:53:39;99278.50;;;11.64;100.00
39793;BME280;26080;42.264;24.536;2023-05-19T01:56:05;99272.59;;;11.61;100.00
39793;BME280;26080;42.264;24.536;2023-05-19T01:58:44;99288.25;;;11.62;100.00
39793;BME280;26080;42.264;24.536;2023-05-19T02:01:50;99287.88;;;11.70;100.00
39793;BME280;26080;42.264;24.536;2023-05-19T02:04:35;99288.28;;;11.78;100.00
39793;BME280;26080;42.264;24.536;2023-05-19T02:09:53;99238.56;;;11.59;100.00
39793;BME280;26080;42.264;24.536;2023-05-19T02:12:36;99290.81;;;11.81;100.00
39793;BME280;26080;42.264;24.536;2023-05-19T02:15:13;99283.28;;;11.73;100.00
39793;BME280;26080;42.264;24.536;2023-05-19T02:17:42;99285.41;;;11.67;100.00
39793;BME280;26080;42.264;24.536;2023-05-19T02:20:08;99288.25;;;11.62;100.00
39793;BME280;26080;42.264;24.536;2023-05-19T02:22:35;99279.84;;;11.55;100.00
39793;BME280;26080;42.264;24.536;2023-05-19T02:25:01;99285.31;;;11.51;100.00
39793;BME280;26080;42.264;24.536;2023-05-19T02:27:26;99291.50;;;11.50;100.00
39793;BME280;26080;42.264;24.536;2023-05-19T02:29:52;99293.59;;;11.43;100.00
39793;BME280;26080;42.264;24.536;2023-05-19T02:32:19;99274.50;;;11.24;100.00
39793;BME280;26080;42.264;24.536;2023-05-19T02:34:44;99294.97;;;11.33;100.00
39793;BME280;26080;42.264;24.536;2023-05-19T02:37:14;99291.91;;;11.25;100.00
39793;BME280;26080;42.264;24.536;2023-05-19T02:39:40;99285.94;;;11.21;100.00
39793;BME280;26080;42.264;24.536;2023-05-19T02:42:06;99288.97;;;11.14;100.00
39793;BME280;26080;42.264;24.536;2023-05-19T02:44:31;99282.16;;;11.10;100.00
39793;BME280;26080;42.264;24.536;2023-05-19T02:46:57;99284.78;;;11.10;100.00
39793;BME280;26080;42.264;24.536;2023-05-19T02:49:22;99275.06;;;10.94;100.00
39793;BME280;26080;42.264;24.536;2023-05-19T02:51:48;99297.34;;;11.03;100.00
39793;BME280;26080;42.264;24.536;2023-05-19T02:54:13;99293.41;;;10.94;100.00
39793;BME280;26080;42.264;24.536;2023-05-19T02:56:39;99303.88;;;10.94;100.00
39793;BME280;26080;42.264;24.536;2023-05-19T02:59:04;99299.81;;;10.89;100.00
39793;BME280;26080;42.264;24.536;2023-05-19T03:01:30;99307.59;;;10.90;100.00
39793;BME280;26080;42.264;24.536;2023-05-19T03:03:57;99312.81;;;10.90;100.00
39793;BME280;26080;42.264;24.536;2023-05-19T03:06:23;99308.59;;;10.88;100.00
39793;BME280;26080;42.264;24.536;2023-05-19T03:08:48;99304.13;;;10.90;100.00
39793;BME280;26080;42.264;24.536;2023-05-19T03:11:14;99308.28;;;10.94;100.00
39793;BME280;26080;42.264;24.536;2023-05-19T03:13:40;99303.13;;;10.92;100.00
39793;BME280;26080;42.264;24.536;2023-05-19T03:16:05;99299.91;;;11.05;100.00
39793;BME280;26080;42.264;24.536;2023-05-19T03:18:32;99306.22;;;11.18;100.00
39793;BME280;26080;42.264;24.536;2023-05-19T03:20:58;99315.56;;;11.23;100.00
39793;BME280;26080;42.264;24.536;2023-05-19T03:23:27;99320.34;;;11.33;100.00
39793;BME280;26080;42.264;24.536;2023-05-19T03:25:52;99324.59;;;11.35;100.00
39793;BME280;26080;42.264;24.536;2023-05-19T03:28:21;99325.16;;;11.42;100.00
39793;BME280;26080;42.264;24.536;2023-05-19T03:30:47;99325.00;;;11.45;100.00
39793;BME280;26080;42.264;24.536;2023-05-19T03:33:14;99326.91;;;11.58;100.00
39793;BME280;26080;42.264;24.536;2023-05-19T03:35:40;99324.59;;;11.70;100.00
39793;BME280;26080;42.264;24.536;2023-05-19T03:38:05;99325.69;;;11.83;100.00
39793;BME280;26080;42.264;24.536;2023-05-19T03:40:31;99331.19;;;12.11;100.00
39793;BME280;26080;42.264;24.536;2023-05-19T03:42:56;99332.44;;;12.53;100.00
39793;BME280;26080;42.264;24.536;2023-05-19T03:45:22;99335.88;;;13.17;100.00
39793;BME280;26080;42.264;24.536;2023-05-19T03:47:47;99339.50;;;13.60;100.00
39793;BME280;26080;42.264;24.536;2023-05-19T03:50:13;99319.13;;;13.78;100.00
39793;BME280;26080;42.264;24.536;2023-05-19T03:52:39;99327.72;;;14.24;100.00
39793;BME280;26080;42.264;24.536;2023-05-19T03:55:09;99333.25;;;14.62;100.00
39793;BME280;26080;42.264;24.536;2023-05-19T03:57:34;99350.22;;;14.99;100.00
39793;BME280;26080;42.264;24.536;2023-05-19T04:00:00;99351.59;;;15.32;100.00
39793;BME280;26080;42.264;24.536;2023-05-19T04:02:26;99352.91;;;15.79;100.00
39793;BME280;26080;42.264;24.536;2023-05-19T04:04:51;99358.59;;;16.23;100.00
39793;BME280;26080;42.264;24.536;2023-05-19T04:07:17;99366.88;;;16.81;100.00
39793;BME280;26080;42.264;24.536;2023-05-19T04:09:43;99367.94;;;17.15;100.00
39793;BME280;26080;42.264;24.536;2023-05-19T04:12:09;99369.16;;;16.23;100.00
39793;BME280;26080;42.264;24.536;2023-05-19T04:14:34;99352.78;;;15.67;100.00
39793;BME280;26080;42.264;24.536;2023-05-19T04:17:00;99365.09;;;15.00;100.00
39793;BME280;26080;42.264;24.536;2023-05-19T04:19:25;99365.66;;;14.91;100.00
39793;BME280;26080;42.264;24.536;2023-05-19T04:21:51;99366.66;;;14.19;100.00
39793;BME280;26080;42.264;24.536;2023-05-19T04:24:16;99363.25;;;13.88;100.00
39793;BME280;26080;42.264;24.536;2023-05-19T04:26:42;99353.44;;;13.76;100.00
39793;BME280;26080;42.264;24.536;2023-05-19T04:29:10;99322.41;;;14.81;100.00
39793;BME280;26080;42.264;24.536;2023-05-19T04:31:38;99337.06;;;16.04;100.00
39793;BME280;26080;42.264;24.536;2023-05-19T04:34:10;99370.41;;;17.29;100.00
39793;BME280;26080;42.264;24.536;2023-05-19T04:36:35;99376.94;;;17.36;100.00
39793;BME280;26080;42.264;24.536;2023-05-19T04:39:02;99365.56;;;16.37;100.00
39793;BME280;26080;42.264;24.536;2023-05-19T04:41:28;99369.88;;;15.87;100.00
39793;BME280;26080;42.264;24.536;2023-05-19T04:43:56;99371.41;;;15.91;100.00
39793;BME280;26080;42.264;24.536;2023-05-19T04:46:22;99351.16;;;17.03;100.00
39793;BME280;26080;42.264;24.536;2023-05-19T04:48:52;99353.28;;;17.70;100.00
39793;BME280;26080;42.264;24.536;2023-05-19T04:51:19;99372.03;;;18.47;100.00
39793;BME280;26080;42.264;24.536;2023-05-19T04:53:45;99380.50;;;18.85;100.00
39793;BME280;26080;42.264;24.536;2023-05-19T04:56:10;99376.59;;;18.22;100.00
39793;BME280;26080;42.264;24.536;2023-05-19T04:58:42;99384.88;;;17.60;100.00
39793;BME280;26080;42.264;24.536;2023-05-19T05:01:08;99385.63;;;17.97;100.00
39793;BME280;26080;42.264;24.536;2023-05-19T05:03:34;99361.03;;;17.95;100.00
39793;BME280;26080;42.264;24.536;2023-05-19T05:06:00;99389.88;;;18.56;100.00
39793;BME280;26080;42.264;24.536;2023-05-19T05:08:25;99384.44;;;18.35;100.00
39793;BME280;26080;42.264;24.536;2023-05-19T05:10:52;99390.91;;;18.09;100.00
39793;BME280;26080;42.264;24.536;2023-05-19T05:13:22;99384.09;;;17.23;100.00
39793;BME280;26080;42.264;24.536;2023-05-19T05:15:48;99393.34;;;16.68;100.00
39793;BME280;26080;42.264;24.536;2023-05-19T05:18:14;99360.50;;;16.47;100.00
39793;BME280;26080;42.264;24.536;2023-05-19T05:20:41;99387.53;;;16.63;100.00
39793;BME280;26080;42.264;24.536;2023-05-19T05:23:08;99399.69;;;16.66;100.00
39793;BME280;26080;42.264;24.536;2023-05-19T05:25:34;99404.03;;;16.79;100.00
39793;BME280;26080;42.264;24.536;2023-05-19T05:28:00;99405.69;;;16.93;100.00
39793;BME280;26080;42.264;24.536;2023-05-19T05:30:29;99381.19;;;16.53;100.00
39793;BME280;26080;42.264;24.536;2023-05-19T05:32:55;99398.84;;;16.65;100.00
39793;BME280;26080;42.264;24.536;2023-05-19T05:35:22;99382.34;;;16.62;100.00
39793;BME280;26080;42.264;24.536;2023-05-19T05:37:51;99402.97;;;16.69;100.00
39793;BME280;26080;42.264;24.536;2023-05-19T05:40:17;99407.22;;;16.59;100.00
39793;BME280;26080;42.264;24.536;2023-05-19T05:42:42;99406.16;;;16.74;100.00
39793;BME280;26080;42.264;24.536;2023-05-19T05:45:08;99415.06;;;16.73;100.00
39793;BME280;26080;42.264;24.536;2023-05-19T05:47:34;99408.44;;;16.92;100.00
39793;BME280;26080;42.264;24.536;2023-05-19T05:50:03;99411.59;;;16.97;100.00
39793;BME280;26080;42.264;24.536;2023-05-19T05:52:30;99406.09;;;17.00;100.00
39793;BME280;26080;42.264;24.536;2023-05-19T05:54:56;99418.84;;;17.18;100.00
39793;BME280;26080;42.264;24.536;2023-05-19T05:57:22;99386.72;;;16.99;100.00
39793;BME280;26080;42.264;24.536;2023-05-19T05:59:47;99413.78;;;17.15;100.00
39793;BME280;26080;42.264;24.536;2023-05-19T06:02:16;99422.34;;;17.19;100.00
39793;BME280;26080;42.264;24.536;2023-05-19T06:04:41;99430.78;;;17.24;100.00
39793;BME280;26080;42.264;24.536;2023-05-19T06:07:08;99429.94;;;17.24;100.00
39793;BME280;26080;42.264;24.536;2023-05-19T06:09:33;99436.13;;;17.35;100.00
39793;BME280;26080;42.264;24.536;2023-05-19T06:11:59;99444.81;;;17.37;100.00
39793;BME280;26080;42.264;24.536;2023-05-19T06:14:24;99437.59;;;17.39;100.00
39793;BME280;26080;42.264;24.536;2023-05-19T06:16:50;99438.44;;;17.40;100.00
39793;BME280;26080;42.264;24.536;2023-05-19T06:19:16;99442.00;;;17.52;100.00
39793;BME280;26080;42.264;24.536;2023-05-19T06:21:42;99447.34;;;17.63;100.00
39793;BME280;26080;42.264;24.536;2023-05-19T06:24:07;99448.91;;;17.65;100.00
39793;BME280;26080;42.264;24.536;2023-05-19T06:26:33;99446.47;;;17.75;100.00
39793;BME280;26080;42.264;24.536;2023-05-19T06:28:58;99449.59;;;17.80;100.00
39793;BME280;26080;42.264;24.536;2023-05-19T06:31:24;99451.34;;;17.92;100.00
39793;BME280;26080;42.264;24.536;2023-05-19T06:33:51;99455.00;;;18.02;100.00
39793;BME280;26080;42.264;24.536;2023-05-19T06:36:16;99446.84;;;18.17;100.00
39793;BME280;26080;42.264;24.536;2023-05-19T06:38:41;99453.38;;;18.24;100.00
39793;BME280;26080;42.264;24.536;2023-05-19T06:41:07;99450.00;;;18.33;100.00
39793;BME280;26080;42.264;24.536;2023-05-19T06:43:32;99454.22;;;18.24;100.00
39793;BME280;26080;42.264;24.536;2023-05-19T06:45:58;99457.47;;;18.28;100.00
39793;BME280;26080;42.264;24.536;2023-05-19T06:48:26;99462.31;;;18.45;100.00
39793;BME280;26080;42.264;24.536;2023-05-19T06:50:52;99472.00;;;18.57;100.00
39793;BME280;26080;42.264;24.536;2023-05-19T06:53:19;99471.78;;;18.72;100.00
39793;BME280;26080;42.264;24.536;2023-05-19T06:55:45;99478.53;;;18.76;100.00
39793;BME280;26080;42.264;24.536;2023-05-19T06:58:10;99466.72;;;18.69;100.00
39793;BME280;26080;42.264;24.536;2023-05-19T07:00:36;99473.69;;;18.58;100.00
39793;BME280;26080;42.264;24.536;2023-05-19T07:03:01;99477.94;;;18.72;100.00
39793;BME280;26080;42.264;24.536;2023-05-19T07:05:27;99477.47;;;18.78;100.00
39793;BME280;26080;42.264;24.536;2023-05-19T07:07:52;99477.56;;;18.77;100.00
39793;BME280;26080;42.264;24.536;2023-05-19T07:10:18;99476.00;;;18.85;100.00
39793;BME280;26080;42.264;24.536;2023-05-19T07:12:43;99475.66;;;19.01;100.00
39793;BME280;26080;42.264;24.536;2023-05-19T07:15:09;99471.56;;;19.08;100.00
39793;BME280;26080;42.264;24.536;2023-05-19T07:17:34;99461.53;;;19.01;100.00
39793;BME280;26080;42.264;24.536;2023-05-19T07:20:00;99479.00;;;19.03;100.00
39793;BME280;26080;42.264;24.536;2023-05-19T07:22:25;99468.03;;;19.19;100.00
39793;BME280;26080;42.264;24.536;2023-05-19T07:24:51;99469.59;;;19.21;100.00
39793;BME280;26080;42.264;24.536;2023-05-19T07:27:17;99472.13;;;19.23;100.00
39793;BME280;26080;42.264;24.536;2023-05-19T07:29:42;99436.53;;;19.26;100.00
39793;BME280;26080;42.264;24.536;2023-05-19T07:32:08;99471.72;;;19.50;100.00
39793;BME280;26080;42.264;24.536;2023-05-19T07:34:33;99461.31;;;19.58;100.00
39793;BME280;26080;42.264;24.536;2023-05-19T07:36:59;99450.81;;;19.57;100.00
39793;BME280;26080;42.264;24.536;2023-05-19T07:39:24;99472.69;;;19.92;100.00
39793;BME280;26080;42.264;24.536;2023-05-19T07:41:54;99451.59;;;19.79;100.00
39793;BME280;26080;42.264;24.536;2023-05-19T07:44:20;99467.03;;;19.86;100.00
39793;BME280;26080;42.264;24.536;2023-05-19T07:46:46;99470.66;;;19.85;100.00
39793;BME280;26080;42.264;24.536;2023-05-19T07:49:12;99447.75;;;19.72;100.00
39793;BME280;26080;42.264;24.536;2023-05-19T07:51:37;99473.06;;;19.88;100.00
39793;BME280;26080;42.264;24.536;2023-05-19T07:54:02;99467.19;;;20.05;100.00
39793;BME280;26080;42.264;24.536;2023-05-19T07:56:28;99476.00;;;20.05;100.00
39793;BME280;26080;42.264;24.536;2023-05-19T07:58:54;99458.50;;;20.03;100.00
39793;BME280;26080;42.264;24.536;2023-05-19T08:01:19;99472.97;;;20.10;100.00
39793;BME280;26080;42.264;24.536;2023-05-19T08:03:45;99473.59;;;20.23;100.00
39793;BME280;26080;42.264;24.536;2023-05-19T08:06:11;99471.88;;;20.33;100.00
39793;BME280;26080;42.264;24.536;2023-05-19T08:08:36;99474.50;;;20.45;100.00
39793;BME280;26080;42.264;24.536;2023-05-19T08:11:02;99476.47;;;20.52;100.00
39793;BME280;26080;42.264;24.536;2023-05-19T08:13:29;99476.19;;;20.46;100.00
39793;BME280;26080;42.264;24.536;2023-05-19T08:15:54;99483.69;;;20.61;100.00
39793;BME280;26080;42.264;24.536;2023-05-19T08:18:26;99462.81;;;20.57;99.61
39793;BME280;26080;42.264;24.536;2023-05-19T08:20:51;99481.88;;;20.62;94.66
39793;BME280;26080;42.264;24.536;2023-05-19T08:23:17;99477.13;;;20.65;99.59
39793;BME280;26080;42.264;24.536;2023-05-19T08:25:44;99482.22;;;20.78;100.00
39793;BME280;26080;42.264;24.536;2023-05-19T08:28:09;99478.69;;;20.98;100.00
39793;BME280;26080;42.264;24.536;2023-05-19T08:30:35;99479.91;;;20.94;100.00
39793;BME280;26080;42.264;24.536;2023-05-19T08:33:01;99481.72;;;20.94;100.00
39793;BME280;26080;42.264;24.536;2023-05-19T08:35:26;99456.41;;;20.99;100.00
39793;BME280;26080;42.264;24.536;2023-05-19T08:37:52;99484.63;;;21.12;100.00
39793;BME280;26080;42.264;24.536;2023-05-19T08:40:19;99488.28;;;21.20;98.87
39793;BME280;26080;42.264;24.536;2023-05-19T08:42:45;99475.47;;;21.05;98.33
39793;BME280;26080;42.264;24.536;2023-05-19T08:45:11;99478.75;;;21.18;95.03
39793;BME280;26080;42.264;24.536;2023-05-19T08:47:37;99483.16;;;21.28;92.44
39793;BME280;26080;42.264;24.536;2023-05-19T08:50:05;99486.00;;;21.46;91.85
39793;BME280;26080;42.264;24.536;2023-05-19T08:52:46;99480.56;;;21.57;96.33
39793;BME280;26080;42.264;24.536;2023-05-19T08:55:26;99484.72;;;21.50;92.03
39793;BME280;26080;42.264;24.536;2023-05-19T08:57:53;99477.91;;;21.77;94.11
39793;BME280;26080;42.264;24.536;2023-05-19T09:00:19;99464.88;;;21.93;91.31
39793;BME280;26080;42.264;24.536;2023-05-19T09:02:48;99472.16;;;22.20;96.19
39793;BME280;26080;42.264;24.536;2023-05-19T09:05:15;99468.06;;;22.45;93.53
39793;BME280;26080;42.264;24.536;2023-05-19T09:07:42;99464.75;;;22.70;90.09
39793;BME280;26080;42.264;24.536;2023-05-19T09:10:08;99463.75;;;22.91;93.72
39793;BME280;26080;42.264;24.536;2023-05-19T09:12:38;99462.75;;;23.19;91.51
39793;BME280;26080;42.264;24.536;2023-05-19T09:15:04;99460.75;;;23.49;90.87
39793;BME280;26080;42.264;24.536;2023-05-19T09:17:32;99433.38;;;23.64;80.16
39793;BME280;26080;42.264;24.536;2023-05-19T09:20:01;99414.88;;;23.89;85.88
39793;BME280;26080;42.264;24.536;2023-05-19T09:22:27;99443.81;;;23.93;76.17
39793;BME280;26080;42.264;24.536;2023-05-19T09:24:55;99428.44;;;23.96;82.50
39793;BME280;26080;42.264;24.536;2023-05-19T09:27:21;99434.78;;;24.30;84.42
39793;BME280;26080;42.264;24.536;2023-05-19T09:29:47;99430.22;;;24.48;78.86
39793;BME280;26080;42.264;24.536;2023-05-19T09:32:23;99437.81;;;24.35;80.80
39793;BME280;26080;42.264;24.536;2023-05-19T09:34:49;99430.19;;;24.40;85.41
39793;BME280;26080;42.264;24.536;2023-05-19T09:37:15;99431.41;;;24.10;78.83
39793;BME280;26080;42.264;24.536;2023-05-19T09:39:40;99418.25;;;24.17;73.51
39793;BME280;26080;42.264;24.536;2023-05-19T09:42:13;99426.66;;;24.22;81.83
39793;BME280;26080;42.264;24.536;2023-05-19T09:44:40;99423.75;;;24.59;73.32
39793;BME280;26080;42.264;24.536;2023-05-19T09:47:08;99429.00;;;24.69;74.24
39793;BME280;26080;42.264;24.536;2023-05-19T09:49:33;99424.47;;;24.69;75.79
39793;BME280;26080;42.264;24.536;2023-05-19T09:52:01;99426.63;;;24.66;72.44
39793;BME280;26080;42.264;24.536;2023-05-19T09:54:32;99419.88;;;24.88;76.82
39793;BME280;26080;42.264;24.536;2023-05-19T09:57:02;99411.47;;;24.48;77.19
39793;BME280;26080;42.264;24.536;2023-05-19T09:59:30;99416.94;;;24.21;73.28
39793;BME280;26080;42.264;24.536;2023-05-19T10:01:59;99426.22;;;24.09;71.83
39793;BME280;26080;42.264;24.536;2023-05-19T10:04:26;99415.19;;;24.12;74.40
39793;BME280;26080;42.264;24.536;2023-05-19T10:06:54;99399.56;;;24.25;77.19
39793;BME280;26080;42.264;24.536;2023-05-19T10:09:24;99417.44;;;24.68;75.94
39793;BME280;26080;42.264;24.536;2023-05-19T10:11:57;99419.38;;;24.84;72.31
39793;BME280;26080;42.264;24.536;2023-05-19T10:14:27;99415.84;;;24.92;71.89
39793;BME280;26080;42.264;24.536;2023-05-19T10:16:54;99417.44;;;24.68;73.67
39793;BME280;26080;42.264;24.536;2023-05-19T10:19:24;99417.44;;;25.02;71.82
39793;BME280;26080;42.264;24.536;2023-05-19T10:21:51;99420.19;;;25.19;76.48
39793;BME280;26080;42.264;24.536;2023-05-19T10:24:17;99413.59;;;25.05;72.82
39793;BME280;26080;42.264;24.536;2023-05-19T10:26:47;99418.97;;;24.79;75.30
39793;BME280;26080;42.264;24.536;2023-05-19T10:29:25;99395.13;;;24.08;73.19
39793;BME280;26080;42.264;24.536;2023-05-19T10:31:54;99409.72;;;24.13;80.05
39793;BME280;26080;42.264;24.536;2023-05-19T10:39:46;99421.88;;;24.08;77.45
39793;BME280;26080;42.264;24.536;2023-05-19T10:42:20;99426.09;;;23.92;76.80
39793;BME280;26080;42.264;24.536;2023-05-19T10:45:17;99421.94;;;23.98;79.61
39793;BME280;26080;42.264;24.536;2023-05-19T10:47:44;99425.09;;;23.93;78.01
39793;BME280;26080;42.264;24.536;2023-05-19T10:50:10;99390.50;;;23.74;75.56
39793;BME280;26080;42.264;24.536;2023-05-19T10:52:37;99434.28;;;23.91;83.20
39793;BME280;26080;42.264;24.536;2023-05-19T10:55:03;99417.16;;;23.84;76.94
39793;BME280;26080;42.264;24.536;2023-05-19T10:57:32;99428.69;;;23.84;80.83
39793;BME280;26080;42.264;24.536;2023-05-19T11:00:05;99409.50;;;24.07;79.82
39793;BME280;26080;42.264;24.536;2023-05-19T11:02:46;99422.25;;;24.13;79.20
39793;BME280;26080;42.264;24.536;2023-05-19T11:05:13;99423.97;;;23.78;79.51
39793;BME280;26080;42.264;24.536;2023-05-19T11:07:55;99399.59;;;23.46;84.33
39793;BME280;26080;42.264;24.536;2023-05-19T11:10:22;99419.78;;;23.58;84.52
39793;BME280;26080;42.264;24.536;2023-05-19T11:12:49;99422.47;;;23.58;81.07
39793;BME280;26080;42.264;24.536;2023-05-19T11:15:15;99415.72;;;23.26;83.62
39793;BME280;26080;42.264;24.536;2023-05-19T11:17:41;99414.06;;;22.98;85.16
39793;BME280;26080;42.264;24.536;2023-05-19T11:20:22;99399.69;;;22.71;87.77
39793;BME280;26080;42.264;24.536;2023-05-19T11:23:04;99416.66;;;22.80;92.13
39793;BME280;26080;42.264;24.536;2023-05-19T11:26:00;99418.13;;;22.65;91.37
39793;BME280;26080;42.264;24.536;2023-05-19T11:28:26;99423.06;;;22.60;91.69
39793;BME280;26080;42.264;24.536;2023-05-19T11:30:54;99422.69;;;22.45;92.69
39793;BME280;26080;42.264;24.536;2023-05-19T11:33:22;99410.34;;;22.44;93.53
39793;BME280;26080;42.264;24.536;2023-05-19T11:35:52;99408.66;;;22.43;96.56
39793;BME280;26080;42.264;24.536;2023-05-19T11:38:19;99392.41;;;22.27;92.91
39793;BME280;26080;42.264;24.536;2023-05-19T11:40:45;99414.16;;;22.32;93.77
39793;BME280;26080;42.264;24.536;2023-05-19T11:43:12;99413.00;;;22.44;96.17
39793;BME280;26080;42.264;24.536;2023-05-19T11:45:37;99406.19;;;22.59;93.78
39793;BME280;26080;42.264;24.536;2023-05-19T11:48:03;99393.66;;;22.69;91.88
39793;BME280;26080;42.264;24.536;2023-05-19T11:50:30;99411.03;;;22.93;92.86
39793;BME280;26080;42.264;24.536;2023-05-19T11:52:59;99403.94;;;23.01;93.67
39793;BME280;26080;42.264;24.536;2023-05-19T11:55:25;99411.59;;;22.87;92.39
39793;BME280;26080;42.264;24.536;2023-05-19T11:58:00;99389.78;;;22.64;88.86
39793;BME280;26080;42.264;24.536;2023-05-19T12:00:27;99376.06;;;22.49;85.04
39793;BME280;26080;42.264;24.536;2023-05-19T12:02:53;99376.09;;;22.39;85.69
39793;BME280;26080;42.264;24.536;2023-05-19T12:05:25;99408.94;;;22.50;87.94
39793;BME280;26080;42.264;24.536;2023-05-19T12:07:51;99408.34;;;22.46;89.93
39793;BME280;26080;42.264;24.536;2023-05-19T12:10:21;99407.50;;;22.55;89.16
39793;BME280;26080;42.264;24.536;2023-05-19T12:12:47;99407.34;;;22.57;87.96
39793;BME280;26080;42.264;24.536;2023-05-19T12:15:14;99407.63;;;22.63;91.67
39793;BME280;26080;42.264;24.536;2023-05-19T12:17:40;99389.53;;;22.47;90.66
39793;BME280;26080;42.264;24.536;2023-05-19T12:20:07;99402.44;;;22.52;95.24
39793;BME280;26080;42.264;24.536;2023-05-19T12:22:33;99398.59;;;22.27;93.85
39793;BME280;26080;42.264;24.536;2023-05-19T12:24:59;99394.69;;;22.12;88.88
39793;BME280;26080;42.264;24.536;2023-05-19T12:27:26;99393.84;;;21.92;91.99
39793;BME280;26080;42.264;24.536;2023-05-19T12:29:53;99395.97;;;21.69;92.16
39793;BME280;26080;42.264;24.536;2023-05-19T12:32:27;99399.06;;;21.65;93.78
39793;BME280;26080;42.264;24.536;2023-05-19T12:34:56;99391.06;;;21.74;92.34
39793;BME280;26080;42.264;24.536;2023-05-19T12:37:25;99390.19;;;22.03;87.74
39793;BME280;26080;42.264;24.536;2023-05-19T12:39:54;99369.41;;;22.26;85.95
39793;BME280;26080;42.264;24.536;2023-05-19T12:42:20;99382.44;;;22.66;81.37
39793;BME280;26080;42.264;24.536;2023-05-19T12:44:48;99390.09;;;22.88;76.86
39793;BME280;26080;42.264;24.536;2023-05-19T12:47:18;99386.63;;;23.05;80.47
39793;BME280;26080;42.264;24.536;2023-05-19T12:50:07;99393.47;;;23.35;80.77
39793;BME280;26080;42.264;24.536;2023-05-19T12:52:40;99381.22;;;23.15;79.45
39793;BME280;26080;42.264;24.536;2023-05-19T12:55:06;99372.97;;;22.81;76.53
39793;BME280;26080;42.264;24.536;2023-05-19T12:57:36;99377.69;;;22.60;76.47
39793;BME280;26080;42.264;24.536;2023-05-19T13:00:04;99374.41;;;22.75;77.83
39793;BME280;26080;42.264;24.536;2023-05-19T13:02:33;99378.38;;;22.99;78.11